TimeCDT,TemperatureF,Dew PointF,Humidity,Sea Level PressureIn,VisibilityMPH,Wind Direction,Wind SpeedMPH,Gust SpeedMPH,PrecipitationIn,Events,Conditions,WindDirDegrees,DateUTC
12:53 AM,43.0,36.0,76,29.88,10.0,West,12.7,-,N/A,,Clear,280,2011-10-15 05:53:00
1:53 AM,42.1,36.0,79,29.89,10.0,West,11.5,-,N/A,,Clear,280,2011-10-15 06:53:00
2:53 AM,42.1,35.1,76,29.89,10.0,West,11.5,-,N/A,,Clear,280,2011-10-15 07:53:00
3:53 AM,41.0,35.1,79,29.89,10.0,West,13.8,-,N/A,,Clear,280,2011-10-15 08:53:00
4:53 AM,39.9,35.1,83,29.88,10.0,West,10.4,-,N/A,,Clear,280,2011-10-15 09:53:00
5:53 AM,37.9,34.0,86,29.90,10.0,West,9.2,-,N/A,,Clear,270,2011-10-15 10:53:00
6:53 AM,37.9,33.1,83,29.90,10.0,West,10.4,-,N/A,,Clear,270,2011-10-15 11:53:00
7:53 AM,37.9,33.1,83,29.90,7.0,West,11.5,-,N/A,,Clear,270,2011-10-15 12:53:00
8:53 AM,41.0,35.1,79,29.91,10.0,West,12.7,-,N/A,,Clear,270,2011-10-15 13:53:00
9:53 AM,45.0,37.0,74,29.91,10.0,West,16.1,-,N/A,,Clear,280,2011-10-15 14:53:00
10:53 AM,50.0,37.0,61,29.90,10.0,WNW,13.8,-,N/A,,Clear,300,2011-10-15 15:53:00
11:53 AM,53.1,36.0,52,29.89,10.0,WNW,13.8,-,N/A,,Clear,300,2011-10-15 16:53:00
12:53 PM,55.0,33.1,43,29.88,10.0,NW,13.8,-,N/A,,Clear,320,2011-10-15 17:53:00
1:53 PM,57.0,33.1,40,29.85,10.0,West,17.3,21.9,N/A,,Partly Cloudy,280,2011-10-15 18:53:00
2:53 PM,55.0,33.1,43,29.84,10.0,WNW,17.3,21.9,N/A,,Scattered Clouds,290,2011-10-15 19:53:00
3:53 PM,55.0,33.1,43,29.85,10.0,WNW,13.8,-,N/A,,Mostly Cloudy,290,2011-10-15 20:53:00
4:53 PM,54.0,34.0,47,29.84,10.0,West,16.1,-,N/A,,Scattered Clouds,280,2011-10-15 21:53:00
5:53 PM,53.1,35.1,50,29.84,10.0,West,11.5,-,N/A,,Mostly Cloudy,270,2011-10-15 22:53:00
6:53 PM,52.0,35.1,53,29.84,10.0,West,10.4,-,N/A,,Mostly Cloudy,270,2011-10-15 23:53:00
7:53 PM,48.9,36.0,61,29.85,10.0,West,8.1,-,N/A,,Scattered Clouds,270,2011-10-16 00:53:00
8:53 PM,44.1,35.1,71,29.86,10.0,West,6.9,-,N/A,,Mostly Cloudy,270,2011-10-16 01:53:00
9:53 PM,43.0,35.1,74,29.86,10.0,West,8.1,-,N/A,,Clear,280,2011-10-16 02:53:00
10:53 PM,42.1,35.1,76,29.86,10.0,West,10.4,-,N/A,,Clear,270,2011-10-16 03:53:00
11:53 PM,41.0,34.0,76,29.86,10.0,West,9.2,-,N/A,,Clear,260,2011-10-16 04:53:00